Elpersbuettel, Germany

4:51 AM CEST on July 24, 2014 (GMT +0200)
Nordsee (ISCHLESW79) Elev 0 ft | 54.01 °N, 8.89 °E | Change Station

Current weather conditions updated 1 second ago

Scattered Clouds
Scattered Clouds
57.6 °F
Feels Like 57.6 °F
N
4.5
Wind Variable Wind from NE
Gusts 7.4 mph

Today is forecast to be Warmer than yesterday.

Today
High -- | Low -- °F
--% Chance of Precip.
Yesterday
High -- | Low -- °F
Precip. -- in
5:23 AM 9:36 PM
Waning Crescent, 7% visible
Pressure 30.09 in
Visibility 6.2 miles
Clouds Scattered Clouds 24000 ft
Dew Point 56 °F
Humidity 96%
Rainfall 0.00 in
Snow Depth Not available.
UV 0.0 out of 12
Pollen Not available.
Air Quality Not available.
Flu Activity Not available.
METAR ETMN 240220Z 06006KT 9999 SCT240 16/13 Q1019 BLU+

More Conditions Fewer Conditions

Pressure 30.09 in
Visibility 6.2 miles
Clouds Scattered Clouds 24000 ft
Dew Point 56 °F
Humidity 96%
Rainfall 0.00 in
Snow Depth Not available.
UV 0.0 out of 12
Pollen Not available.
Air Quality Not available.
Flu Activity Not available.
METAR ETMN 240220Z 06006KT 9999 SCT240 16/13 Q1019 BLU+

More Conditions Fewer Conditions

10-Day Weather Forecast

Almanac

Astronomy

Jul. 24, 2014 Rise Set
Actual Time 5:23 AM CEST 9:36 PM CEST
Civil Twilight 4:36 AM CEST 10:23 PM CEST
Nautical Twilight 3:25 AM CEST 11:32 PM CEST
Astronomical Twilight 2:02 AM CEST 12:58 AM CEST
Moon 3:21 AM CEST 7:34 PM CEST
Length of Visible Light 17h 46m
Length of Day
16h 12m
Tomorrow will be 3m 9s shorter.
Waning Crescent, 7% of the Moon is Illuminated
Jul 23
Waning Crescent
Jul 26
New
Aug 3
First Quarter
Aug 10
Full
Aug 17
Last Quarter

Yesterday's Extremes

Country Highs Country Lows

Community

WunderPhotos

Upload Photos

1,736,864 photos uploaded!

Nearby

Snow Depth

Not available.

Earthquake Activity

City Distance Mag. Time & Date
No recent earthquake activity has been reported nearby.
Minimum magnitude displayed is 2.5.

Coastal Water Temperatures

Place Temperature
No Stations Reporting

Nearby Weather Stations

Station Location Temp. Dew Point Humidity Wind Precip. Elev Updated Type
Nordsee, Friedrichskoog 57.6 °F 56 °F 96% NE  at  4.5 mph 0.00 in / hr 0 ft 4:51 AM CEST Rapid Fire
Heide 57.6 °F 56 °F 93% North  at  0.0 mph 0.00 in / hr 85 ft 4:51 AM CEST Rapid Fire
Sprantewetter, Brunsbuettel 59.4 °F 57 °F 92% NNE  at  1.0 mph 0.00 in / hr 6 ft 4:47 AM CEST Normal
Cuxhaven, Cuxhaven 66.9 °F 57 °F 70% ESE  at  5.5 mph 0.00 in / hr 6 ft 4:00 AM CEST Normal
Ferienhaus Kiterkoje, Sankt Peter-Ording 61.3 °F 59 °F 92% NNE  at  0.0 mph 0.00 in / hr 7 ft 4:50 AM CEST Rapid Fire
Itzehoe, Itzehoe 61.5 °F 58 °F 87% ENE  at  0.0 mph 0.00 in / hr 72 ft 4:50 AM CEST Rapid Fire
Cuxhaven, Oxstedt 62.6 °F 57 °F 81% ENE  at  4.0 mph 0.00 in / hr 50 ft 4:50 AM CEST Normal

Show More Stations Show Fewer Stations